Querinda Park, New Mexico
Current Conditions -  °F | °C
As of 5:15 PM on Sunday 25 Jan 2015 (Local Time) from KAXX Reporting Station
Clear Clear  
Wind Chill:   Ceiling: Unl
Heat Index:   Visibility: 10mi
Dew Point: -5°   Wind: 12mph
Humidity: 52%   Direction: 230°SW
Pressure: 30.29"   Gusts: NA
Location:  36.7124°N, 105.403°W
Report Text: KAXX 260015Z AUTO 23010KT 10SM CLR 04/M05 A3029 RMK AO2 T00411050
Loading
Personal Weather Stations






























Interactive Weather Map New forecast layout! Learn more

10-Day Weather Forecast

Advertisements
Track Severe Weather on mobile